Time;durP1;ratioP1;P1;durP2;ratioP2;P2;SDS_P1;SDS_P2;PMS_P1;PMS_P2;Temp;Humidity;BMP_temperature;BMP_pressure;BME280_temperature;BME280_humidity;BME280_pressure;Samples;Min_cycle;Max_cycle;Signal;HPM_P1;HPM_P2
2021/12/04 00:02:00;;;;;;;3.85;1.83;;;3.90;94.00;;;;;;5008727;28;20045;-73
2021/12/04 00:04:36;;;;;;;3.42;1.80;;;3.90;94.10;;;;;;5006899;28;20014;-73
2021/12/04 00:07:05;;;;;;;3.72;1.90;;;3.90;93.60;;;;;;5018132;28;20030;-73
2021/12/04 00:09:31;;;;;;;4.07;2.17;;;3.80;93.90;;;;;;5016708;28;20045;-73
2021/12/04 00:12:05;;;;;;;4.07;2.20;;;3.80;94.30;;;;;;5014855;28;20126;-73
2021/12/04 00:14:34;;;;;;;4.47;2.05;;;3.80;93.90;;;;;;5017730;28;20053;-73
2021/12/04 00:17:00;;;;;;;4.80;1.88;;;3.80;93.90;;;;;;5013715;28;20061;-73
2021/12/04 00:19:27;;;;;;;4.78;2.28;;;3.70;94.00;;;;;;5016743;28;20076;-73
2021/12/04 00:21:55;;;;;;;4.95;2.30;;;3.70;94.10;;;;;;5027862;28;20323;-73
2021/12/04 00:24:24;;;;;;;4.30;2.42;;;3.70;93.60;;;;;;5032282;28;20117;-73
2021/12/04 00:26:52;;;;;;;4.30;2.40;;;3.70;93.70;;;;;;5016939;28;20087;-73
2021/12/04 00:29:18;;;;;;;7.25;3.03;;;3.60;93.80;;;;;;5015936;28;20079;-73
2021/12/04 00:31:48;;;;;;;5.05;2.45;;;3.60;93.70;;;;;;5004172;28;20034;-73
2021/12/04 00:34:15;;;;;;;5.18;2.58;;;3.60;93.90;;;;;;4999760;28;20034;-73
2021/12/04 00:50:13;;;;;;;8.63;4.18;;;3.30;94.20;;;;;;5017603;28;20096;-73
2021/12/04 00:52:39;;;;;;;7.68;4.20;;;3.20;94.40;;;;;;5014468;28;20057;-74
2021/12/04 00:55:07;;;;;;;7.93;3.75;;;3.10;94.60;;;;;;5012835;28;20379;-73
2021/12/04 00:57:33;;;;;;;8.93;4.15;;;3.10;95.20;;;;;;5016006;28;20022;-73
2021/12/04 01:00:01;;;;;;;8.38;4.22;;;3.00;95.70;;;;;;5014494;28;20394;-74
2021/12/04 01:02:27;;;;;;;9.00;4.38;;;2.90;96.50;;;;;;5016837;28;20026;-74
2021/12/04 01:04:53;;;;;;;10.30;4.35;;;2.70;97.70;;;;;;5013821;28;20026;-74
2021/12/04 01:07:25;;;;;;;8.18;4.85;;;2.50;98.00;;;;;;5013712;28;20045;-75
2021/12/04 01:09:52;;;;;;;7.45;4.93;;;2.30;98.00;;;;;;5016949;28;20033;-75
2021/12/04 01:12:18;;;;;;;10.15;5.20;;;2.10;98.00;;;;;;5016843;28;20108;-76
2021/12/04 01:14:45;;;;;;;8.90;4.80;;;1.90;98.00;;;;;;5004601;28;20374;-76
2021/12/04 01:17:11;;;;;;;7.80;4.35;;;1.80;98.00;;;;;;5011859;28;20038;-77
2021/12/04 01:19:37;;;;;;;10.02;5.25;;;1.70;98.00;;;;;;5005980;28;20034;-77
2021/12/04 01:22:05;;;;;;;8.00;4.78;;;1.70;98.00;;;;;;4996127;28;20337;-76
2021/12/04 01:24:32;;;;;;;10.32;5.43;;;1.70;98.00;;;;;;4999327;28;20056;-76
2021/12/04 01:26:58;;;;;;;9.98;4.93;;;1.60;98.00;;;;;;5007300;28;20148;-77
2021/12/04 01:29:24;;;;;;;7.50;4.50;;;1.60;97.70;;;;;;5014939;28;20037;-76
2021/12/04 01:31:50;;;;;;;6.25;3.63;;;1.70;97.40;;;;;;5005289;28;20030;-76
2021/12/04 01:34:16;;;;;;;8.52;3.67;;;1.70;96.90;;;;;;5014871;28;20030;-76
2021/12/04 01:36:43;;;;;;;8.57;4.07;;;1.70;96.90;;;;;;5015248;28;20038;-76
2021/12/04 01:39:10;;;;;;;9.75;4.38;;;1.70;96.90;;;;;;5014611;28;20045;-76
2021/12/04 01:41:37;;;;;;;6.47;3.45;;;1.80;96.90;;;;;;5016387;28;20042;-75
2021/12/04 01:44:05;;;;;;;8.27;3.80;;;1.80;96.60;;;;;;5006622;28;20148;-76
2021/12/04 01:46:31;;;;;;;6.38;3.22;;;1.90;96.60;;;;;;5008857;28;20018;-76
2021/12/04 01:48:57;;;;;;;5.30;2.85;;;1.90;96.80;;;;;;5008619;28;20097;-75
2021/12/04 01:51:23;;;;;;;6.38;2.80;;;2.00;96.70;;;;;;5000522;28;20025;-76
2021/12/04 01:53:49;;;;;;;6.00;2.60;;;2.10;97.00;;;;;;5000924;28;20041;-76
2021/12/04 01:56:17;;;;;;;4.18;2.45;;;2.10;97.40;;;;;;5015052;28;20438;-76
2021/12/04 01:58:43;;;;;;;5.15;2.05;;;2.20;98.00;;;;;;5014324;28;20034;-76
2021/12/04 02:01:10;;;;;;;4.20;2.28;;;2.30;98.00;;;;;;5009874;28;20331;-76
2021/12/04 02:03:36;;;;;;;4.68;1.98;;;2.30;98.00;;;;;;5002081;28;20034;-76
2021/12/04 02:06:03;;;;;;;4.40;2.30;;;2.30;98.00;;;;;;5014769;28;20029;-76
2021/12/04 02:08:29;;;;;;;3.85;2.20;;;2.30;98.00;;;;;;5014237;28;20411;-76
2021/12/04 02:10:59;;;;;;;4.68;2.38;;;2.40;98.00;;;;;;5014388;28;20435;-76
2021/12/04 02:13:26;;;;;;;4.45;2.40;;;2.40;98.00;;;;;;5009097;28;20064;-76
2021/12/04 02:15:52;;;;;;;5.28;2.47;;;2.40;98.00;;;;;;5013732;28;20092;-76
2021/12/04 02:18:20;;;;;;;4.82;2.35;;;2.30;98.00;;;;;;5012332;28;20025;-76
2021/12/04 02:20:47;;;;;;;5.03;2.38;;;2.30;98.00;;;;;;5010643;28;20052;-76
2021/12/04 02:23:13;;;;;;;4.13;2.30;;;2.30;98.00;;;;;;5022756;28;20022;-76
2021/12/04 02:25:39;;;;;;;4.63;2.53;;;2.30;98.00;;;;;;5003675;28;20080;-76
2021/12/04 02:28:07;;;;;;;3.97;2.20;;;2.30;98.00;;;;;;5015236;28;20021;-76
2021/12/04 02:30:36;;;;;;;4.15;2.28;;;2.30;98.00;;;;;;5013236;28;20084;-76
2021/12/04 02:33:11;;;;;;;4.53;2.53;;;2.30;98.00;;;;;;5015465;28;20052;-76
2021/12/04 02:35:45;;;;;;;5.05;2.95;;;2.30;98.00;;;;;;5014642;28;20030;-76
2021/12/04 02:38:11;;;;;;;4.40;2.50;;;2.40;98.00;;;;;;5009727;28;20593;-76
2021/12/04 02:40:37;;;;;;;3.83;2.30;;;2.30;98.00;;;;;;5013495;28;20048;-76
2021/12/04 02:43:04;;;;;;;4.38;2.58;;;2.30;98.00;;;;;;5011797;28;20022;-75
2021/12/04 02:45:30;;;;;;;3.78;2.15;;;2.30;98.00;;;;;;5006317;28;20113;-76
2021/12/04 02:47:57;;;;;;;4.15;2.30;;;2.30;98.00;;;;;;5007549;28;20419;-76
2021/12/04 02:50:22;;;;;;;4.07;2.28;;;2.40;98.00;;;;;;5012712;28;20080;-75
2021/12/04 02:52:48;;;;;;;3.63;2.00;;;2.40;98.00;;;;;;5013697;28;20026;-75
2021/12/04 02:55:16;;;;;;;3.40;1.90;;;2.50;98.00;;;;;;5010994;28;20121;-75
2021/12/04 02:57:46;;;;;;;5.32;2.10;;;2.50;98.00;;;;;;4999275;28;20374;-75
2021/12/04 03:00:21;;;;;;;3.40;1.80;;;2.50;98.00;;;;;;5013596;28;20026;-75
2021/12/04 03:02:47;;;;;;;3.92;1.95;;;2.50;98.00;;;;;;5011570;28;20107;-75
2021/12/04 03:05:14;;;;;;;3.40;2.00;;;2.50;98.00;;;;;;4997689;28;20033;-75
2021/12/04 03:07:40;;;;;;;2.65;1.58;;;2.60;98.00;;;;;;4995061;28;20024;-75
2021/12/04 03:10:08;;;;;;;2.63;1.58;;;2.80;98.00;;;;;;4997186;28;20053;-75
2021/12/04 03:12:36;;;;;;;3.05;1.70;;;2.90;98.00;;;;;;5027568;28;20030;-75
2021/12/04 03:15:02;;;;;;;2.45;1.42;;;2.90;98.00;;;;;;5014209;28;20485;-75
2021/12/04 03:17:28;;;;;;;3.42;1.40;;;2.90;98.00;;;;;;5014075;28;20394;-75
2021/12/04 03:19:54;;;;;;;2.17;1.30;;;3.00;98.00;;;;;;5014665;28;20022;-75
2021/12/04 03:22:22;;;;;;;1.90;1.17;;;3.20;98.00;;;;;;5012628;28;20121;-75
2021/12/04 03:24:48;;;;;;;1.63;1.08;;;3.40;98.00;;;;;;5011623;28;20061;-75
2021/12/04 03:27:16;;;;;;;1.20;0.90;;;3.40;98.00;;;;;;5014051;28;20069;-76
2021/12/04 03:29:49;;;;;;;1.30;0.90;;;3.50;98.00;;;;;;5004939;28;20030;-75
2021/12/04 03:43:07;;;;;;;0.80;0.80;;;4.00;98.00;;;;;;5013013;28;20492;-75
2021/12/04 03:45:35;;;;;;;0.80;0.80;;;4.10;98.00;;;;;;5012643;28;20030;-75
2021/12/04 03:48:27;;;;;;;0.90;0.80;;;4.10;98.00;;;;;;5012304;28;20014;-75
2021/12/04 03:50:53;;;;;;;1.08;0.98;;;4.10;98.00;;;;;;5016735;28;20037;-76
2021/12/04 03:53:20;;;;;;;0.70;0.70;;;4.20;98.00;;;;;;5017172;28;20403;-75
2021/12/04 03:55:46;;;;;;;1.02;0.80;;;4.20;98.00;;;;;;5013939;28;20034;-75
2021/12/04 03:58:12;;;;;;;1.40;0.80;;;4.30;98.00;;;;;;5001921;28;20028;-76
2021/12/04 04:00:38;;;;;;;0.85;0.70;;;4.30;98.00;;;;;;5009927;28;20322;-76
2021/12/04 04:03:04;;;;;;;0.70;0.70;;;4.30;98.00;;;;;;5017308;28;20036;-76
2021/12/04 04:05:30;;;;;;;0.70;0.70;;;4.30;98.00;;;;;;5017869;28;20022;-75
2021/12/04 04:07:56;;;;;;;1.13;0.80;;;4.30;98.00;;;;;;5016160;28;20355;-75
2021/12/04 04:10:22;;;;;;;8.23;4.15;;;4.30;98.00;;;;;;5015429;28;20420;-75
2021/12/04 04:12:49;;;;;;;15.10;6.75;;;4.40;98.00;;;;;;5016908;28;20407;-75
2021/12/04 04:15:15;;;;;;;4.00;1.95;;;4.50;98.00;;;;;;5012345;28;20033;-75
2021/12/04 04:17:42;;;;;;;4.45;2.15;;;4.50;98.00;;;;;;5016777;28;20053;-75
2021/12/04 04:20:12;;;;;;;0.60;0.60;;;4.70;98.00;;;;;;5017396;28;20022;-75
2021/12/04 04:22:38;;;;;;;0.70;0.70;;;4.90;98.00;;;;;;5015181;28;20512;-75
2021/12/04 04:25:04;;;;;;;3.30;1.60;;;5.00;98.00;;;;;;5016646;28;20100;-75
2021/12/04 04:27:30;;;;;;;7.72;4.18;;;5.10;98.00;;;;;;5016343;28;20046;-75
2021/12/04 04:29:57;;;;;;;3.13;1.70;;;4.90;98.00;;;;;;5017182;28;20037;-75
2021/12/04 04:32:24;;;;;;;1.48;1.10;;;4.70;98.00;;;;;;5016272;28;20037;-75
2021/12/04 04:34:54;;;;;;;0.80;0.70;;;4.70;98.00;;;;;;5015972;28;20435;-75
2021/12/04 04:37:35;;;;;;;0.98;0.80;;;4.90;98.00;;;;;;5013904;28;20101;-75
2021/12/04 05:15:23;;;;;;;0.63;0.63;;;4.90;98.00;;;;;;5004596;28;20117;-75
2021/12/04 05:20:21;;;;;;;1.10;0.80;;;4.90;98.00;;;;;;5010564;28;20386;-75
2021/12/04 05:22:47;;;;;;;0.70;0.70;;;5.00;98.00;;;;;;5011157;28;20104;-75
2021/12/04 05:25:14;;;;;;;0.88;0.70;;;5.00;98.00;;;;;;5002693;28;20058;-75
2021/12/04 05:27:42;;;;;;;0.80;0.80;;;5.00;98.00;;;;;;5013564;28;20457;-75
2021/12/04 05:30:08;;;;;;;0.60;0.60;;;5.00;98.00;;;;;;5015225;28;20037;-75
2021/12/04 05:32:34;;;;;;;1.15;0.60;;;5.00;98.00;;;;;;5016654;28;20044;-75
2021/12/04 05:35:00;;;;;;;0.65;0.65;;;5.00;98.00;;;;;;5014183;28;20101;-75
2021/12/04 05:37:26;;;;;;;1.77;0.70;;;5.00;98.00;;;;;;5014904;28;20101;-75
2021/12/04 05:39:52;;;;;;;2.05;0.65;;;5.20;98.00;;;;;;5016623;28;20036;-75
2021/12/04 05:42:18;;;;;;;0.70;0.70;;;5.10;98.00;;;;;;4999729;28;20057;-75
2021/12/04 05:44:44;;;;;;;0.60;0.60;;;5.10;98.00;;;;;;5000376;28;20018;-77
2021/12/04 05:47:27;;;;;;;0.68;0.60;;;5.10;98.00;;;;;;5021980;28;20036;-75
2021/12/04 05:50:02;;;;;;;0.63;0.63;;;5.20;98.00;;;;;;5015529;28;20034;-76
2021/12/04 05:52:38;;;;;;;1.15;0.80;;;5.20;98.00;;;;;;5014256;28;20459;-76
2021/12/04 05:55:16;;;;;;;0.60;0.60;;;5.10;98.00;;;;;;5007563;28;20030;-76
2021/12/04 05:57:42;;;;;;;0.63;0.63;;;5.10;98.00;;;;;;5014605;28;20028;-76
2021/12/04 06:00:13;;;;;;;0.88;0.70;;;5.00;98.00;;;;;;5010886;28;20117;-77
2021/12/04 06:02:39;;;;;;;0.70;0.70;;;5.00;98.00;;;;;;4998983;28;20022;-76
2021/12/04 06:05:05;;;;;;;0.63;0.63;;;5.10;98.00;;;;;;5009283;28;20033;-77
2021/12/04 06:07:31;;;;;;;0.68;0.68;;;5.10;98.00;;;;;;5014652;28;20060;-77
2021/12/04 06:09:57;;;;;;;0.93;0.70;;;5.20;98.00;;;;;;5015263;28;20391;-76
2021/12/04 06:12:22;;;;;;;1.08;0.77;;;5.20;98.00;;;;;;5015051;28;20037;-76
2021/12/04 06:14:49;;;;;;;0.60;0.60;;;5.20;98.00;;;;;;5002275;28;20102;-75
2021/12/04 06:17:18;;;;;;;0.68;0.68;;;5.20;98.00;;;;;;5005920;28;20484;-76
2021/12/04 06:22:41;;;;;;;;;;;5.40;98.00;;;;;;5013310;28;20037;-76
2021/12/04 06:25:11;;;;;;;0.60;0.60;;;5.40;98.00;;;;;;5013708;28;19963;-76
2021/12/04 06:27:38;;;;;;;2.47;0.60;;;5.30;98.00;;;;;;5014962;28;20073;-76
2021/12/04 06:30:05;;;;;;;0.70;0.63;;;5.30;98.00;;;;;;5006315;28;20026;-76
2021/12/04 06:32:31;;;;;;;1.00;0.70;;;5.30;98.00;;;;;;5010653;28;20022;-76
2021/12/04 06:34:57;;;;;;;0.60;0.60;;;5.40;98.00;;;;;;5016165;28;20029;-75
2021/12/04 06:37:23;;;;;;;0.60;0.60;;;5.40;98.00;;;;;;5009562;28;20109;-76
2021/12/04 06:39:49;;;;;;;1.33;0.98;;;5.40;98.00;;;;;;5011388;28;20451;-75
2021/12/04 06:42:14;;;;;;;0.60;0.60;;;5.40;98.00;;;;;;5005302;28;20021;-76
2021/12/04 06:44:40;;;;;;;1.02;0.68;;;5.50;98.00;;;;;;5012004;28;20319;-75
2021/12/04 06:47:06;;;;;;;1.02;0.70;;;5.50;98.00;;;;;;4999496;28;20030;-76
2021/12/04 06:49:36;;;;;;;0.60;0.60;;;5.60;98.00;;;;;;5012984;28;20034;-75
2021/12/04 06:52:05;;;;;;;0.68;0.60;;;5.60;98.00;;;;;;5015399;28;20386;-76
2021/12/04 06:54:37;;;;;;;0.82;0.75;;;5.60;98.00;;;;;;5000086;28;20360;-77
2021/12/04 06:57:07;;;;;;;0.88;0.60;;;5.60;98.00;;;;;;5007480;28;20026;-77
2021/12/04 06:59:33;;;;;;;1.73;0.80;;;5.60;98.00;;;;;;5014504;28;20026;-76
2021/12/04 07:01:59;;;;;;;0.90;0.70;;;5.60;98.00;;;;;;5001583;28;20466;-77
2021/12/04 07:04:35;;;;;;;1.10;0.70;;;5.80;98.00;;;;;;5013258;28;20066;-77
2021/12/04 07:07:10;;;;;;;0.60;0.60;;;5.90;98.00;;;;;;5017700;28;20032;-76
2021/12/04 07:09:37;;;;;;;0.80;0.70;;;5.90;98.00;;;;;;5018399;28;20072;-76
2021/12/04 07:12:04;;;;;;;0.68;0.68;;;6.10;98.00;;;;;;5018098;28;20082;-76
2021/12/04 07:14:31;;;;;;;0.93;0.70;;;6.20;98.00;;;;;;5015861;28;20073;-77
2021/12/04 07:16:59;;;;;;;0.70;0.70;;;6.30;98.00;;;;;;5014406;28;20037;-76
2021/12/04 07:19:25;;;;;;;0.63;0.63;;;6.30;98.00;;;;;;5012393;28;20432;-76
2021/12/04 07:21:51;;;;;;;0.60;0.60;;;6.40;98.00;;;;;;5012015;28;20041;-76
2021/12/04 07:24:17;;;;;;;0.63;0.63;;;6.50;98.00;;;;;;5017841;28;20046;-76
2021/12/04 07:26:43;;;;;;;0.60;0.60;;;6.50;98.00;;;;;;5011232;28;20045;-76
2021/12/04 07:29:09;;;;;;;0.60;0.60;;;6.50;98.00;;;;;;5015256;28;20018;-76
2021/12/04 07:31:35;;;;;;;1.30;0.70;;;6.60;98.00;;;;;;5001620;28;20030;-75
2021/12/04 07:34:00;;;;;;;0.82;0.70;;;6.80;98.00;;;;;;5018964;28;20037;-76
2021/12/04 07:36:27;;;;;;;0.60;0.60;;;6.80;98.00;;;;;;5017127;28;20113;-77
2021/12/04 07:38:54;;;;;;;0.60;0.60;;;7.00;98.00;;;;;;5000825;28;20049;-75
2021/12/04 07:41:20;;;;;;;0.88;0.60;;;7.00;98.00;;;;;;5027913;28;20315;-76
2021/12/04 07:43:46;;;;;;;1.10;0.70;;;7.10;98.00;;;;;;5037582;28;20377;-76
2021/12/04 07:46:12;;;;;;;0.63;0.60;;;7.00;98.00;;;;;;5025021;28;20021;-76
2021/12/04 07:48:37;;;;;;;0.60;0.60;;;7.00;98.00;;;;;;5018591;28;20034;-76
2021/12/04 07:51:04;;;;;;;0.60;0.60;;;6.90;98.00;;;;;;5018679;28;20029;-75
2021/12/04 07:53:31;;;;;;;1.48;0.70;;;6.80;98.00;;;;;;5019379;28;20083;-76
2021/12/04 07:55:57;;;;;;;0.80;0.70;;;6.80;98.00;;;;;;5002042;28;20025;-76
2021/12/04 07:58:23;;;;;;;0.70;0.70;;;6.90;98.00;;;;;;5023415;28;20018;-77
2021/12/04 08:00:49;;;;;;;0.70;0.60;;;7.00;98.00;;;;;;5020737;28;20037;-77
2021/12/04 08:03:15;;;;;;;0.77;0.60;;;7.00;98.00;;;;;;5029443;28;20061;-76
2021/12/04 08:05:42;;;;;;;1.33;0.70;;;7.10;98.00;;;;;;5016504;28;20014;-76
2021/12/04 08:08:07;;;;;;;0.60;0.60;;;7.10;98.00;;;;;;5014201;28;20563;-76
2021/12/04 08:10:34;;;;;;;0.70;0.65;;;7.10;98.00;;;;;;5010985;28;20037;-76
2021/12/04 08:13:02;;;;;;;0.85;0.60;;;7.20;98.00;;;;;;5013369;28;20064;-76
2021/12/04 08:15:29;;;;;;;1.13;0.70;;;7.30;98.00;;;;;;4998377;28;20030;-76
2021/12/04 08:17:55;;;;;;;0.60;0.60;;;7.40;98.00;;;;;;5017134;28;20093;-75
2021/12/04 08:20:21;;;;;;;0.60;0.60;;;7.50;98.00;;;;;;5016423;28;20034;-76
2021/12/04 08:22:47;;;;;;;0.60;0.60;;;7.50;98.00;;;;;;5014569;28;20433;-76
2021/12/04 08:25:16;;;;;;;0.60;0.60;;;7.60;98.00;;;;;;5017854;28;20093;-76
2021/12/04 08:27:43;;;;;;;0.75;0.60;;;7.60;98.00;;;;;;5017860;28;20053;-75
2021/12/04 08:30:12;;;;;;;0.82;0.60;;;7.70;98.00;;;;;;5020052;28;20029;-75
2021/12/04 08:32:39;;;;;;;1.13;0.70;;;7.80;98.00;;;;;;5024394;28;20422;-76
2021/12/04 08:35:07;;;;;;;0.75;0.68;;;7.80;98.00;;;;;;5012478;28;20041;-75
2021/12/04 08:37:32;;;;;;;0.60;0.60;;;7.80;98.00;;;;;;5011631;28;20368;-76
2021/12/04 08:39:58;;;;;;;0.65;0.60;;;7.80;98.00;;;;;;5013959;28;20033;-75
2021/12/04 08:42:24;;;;;;;0.60;0.60;;;7.90;98.00;;;;;;5011675;28;20041;-76
2021/12/04 08:44:51;;;;;;;0.57;0.57;;;8.00;98.00;;;;;;5009838;28;20029;-77
2021/12/04 08:47:17;;;;;;;1.08;0.73;;;8.00;98.00;;;;;;5015765;28;20029;-76
2021/12/04 08:49:43;;;;;;;0.75;0.57;;;8.10;98.00;;;;;;5007737;28;20026;-76
2021/12/04 08:52:10;;;;;;;0.60;0.60;;;8.10;98.00;;;;;;5016280;28;20419;-76
2021/12/04 08:54:37;;;;;;;0.60;0.60;;;8.10;98.00;;;;;;5007708;28;20038;-77
2021/12/04 08:57:04;;;;;;;0.88;0.60;;;8.20;98.00;;;;;;5007440;28;20431;-76
2021/12/04 08:59:32;;;;;;;1.00;0.60;;;8.30;98.00;;;;;;5011347;28;20041;-76
2021/12/04 09:01:59;;;;;;;1.05;0.70;;;8.20;98.00;;;;;;5012390;28;20430;-77
2021/12/04 09:04:28;;;;;;;0.60;0.60;;;8.20;98.00;;;;;;5007395;28;20030;-76
2021/12/04 09:06:54;;;;;;;0.60;0.60;;;8.20;98.00;;;;;;5004434;28;20370;-76
2021/12/04 09:09:24;;;;;;;1.00;0.65;;;8.30;98.00;;;;;;5006723;28;20019;-76
2021/12/04 09:11:53;;;;;;;0.90;0.65;;;8.30;98.00;;;;;;5012243;28;20026;-76
2021/12/04 09:14:22;;;;;;;0.50;0.50;;;8.40;98.00;;;;;;5011431;28;20029;-76
2021/12/04 09:16:51;;;;;;;0.60;0.60;;;8.50;98.00;;;;;;5010152;28;20026;-76
2021/12/04 09:19:18;;;;;;;0.55;0.55;;;8.50;98.00;;;;;;5016205;28;20414;-76
2021/12/04 09:21:43;;;;;;;0.82;0.70;;;8.60;98.00;;;;;;5016753;28;20026;-75
2021/12/04 09:24:14;;;;;;;1.02;0.60;;;8.60;98.00;;;;;;5014679;28;20414;-76
2021/12/04 10:02:03;;;;;;;0.70;0.60;;;9.20;98.00;;;;;;5016142;28;20030;-76
2021/12/04 10:18:10;;;;;;;0.50;0.50;;;9.10;98.00;;;;;;5015944;28;20029;-76
2021/12/04 10:34:28;;;;;;;0.95;0.70;;;9.30;98.00;;;;;;5015387;28;20033;-76
2021/12/04 10:37:02;;;;;;;0.90;0.60;;;9.40;98.00;;;;;;5014513;28;20026;-76
2021/12/04 10:39:28;;;;;;;1.00;0.70;;;9.20;98.00;;;;;;5013309;28;20036;-76
2021/12/04 10:41:55;;;;;;;1.85;0.70;;;8.90;98.00;;;;;;5006438;28;20022;-77
2021/12/04 10:44:23;;;;;;;0.55;0.55;;;8.90;98.00;;;;;;5000540;28;20415;-76
2021/12/04 10:47:06;;;;;;;0.80;0.73;;;8.90;98.00;;;;;;5000206;28;20101;-76
2021/12/04 10:52:28;;;;;;;1.38;0.70;;;8.80;98.00;;;;;;5017715;28;20113;-76
2021/12/04 10:55:16;;;;;;;;;;;8.80;98.00;;;;;;5019220;28;20029;-77
2021/12/04 11:41:59;;;;;;;0.90;0.70;;;7.90;98.00;;;;;;5007981;28;20164;-77
2021/12/04 11:44:43;;;;;;;1.77;1.08;;;7.90;98.00;;;;;;5018690;28;20092;-76
2021/12/04 11:47:10;;;;;;;2.17;0.80;;;7.90;98.00;;;;;;5018589;28;20426;-77
2021/12/04 11:49:36;;;;;;;1.33;0.90;;;7.90;98.00;;;;;;5018676;28;20108;-76
2021/12/04 11:52:11;;;;;;;1.20;0.80;;;7.90;98.00;;;;;;5017737;28;20057;-77
2021/12/04 11:54:58;;;;;;;1.38;0.70;;;8.00;98.00;;;;;;5018218;28;20077;-77
2021/12/04 11:57:31;;;;;;;0.75;0.70;;;8.00;98.00;;;;;;5018389;28;20034;-77
2021/12/04 12:00:29;;;;;;;1.00;0.80;;;8.00;98.00;;;;;;5018638;28;20379;-77
2021/12/04 12:03:12;;;;;;;0.90;0.80;;;8.00;98.00;;;;;;5013413;28;20046;-77
2021/12/04 12:05:55;;;;;;;1.13;0.75;;;8.00;98.00;;;;;;5007649;28;20057;-76
2021/12/04 12:08:22;;;;;;;1.55;0.80;;;8.10;98.00;;;;;;5016854;28;20026;-77
2021/12/04 12:10:50;;;;;;;1.48;0.80;;;8.10;98.00;;;;;;5017641;28;20319;-77
2021/12/04 12:13:34;;;;;;;1.70;1.00;;;8.10;98.00;;;;;;5018199;28;20311;-77
2021/12/04 12:16:19;;;;;;;0.77;0.70;;;8.10;98.00;;;;;;5017169;28;20034;-77
2021/12/04 12:18:59;;;;;;;3.22;1.00;;;8.10;98.00;;;;;;5012321;28;20041;-77
2021/12/04 12:21:34;;;;;;;1.33;0.82;;;8.20;98.00;;;;;;4997636;28;20407;-76
2021/12/04 12:27:22;;;;;;;1.08;0.73;;;8.00;98.00;;;;;;5017735;28;20179;-77
2021/12/04 12:33:29;;;;;;;1.40;0.80;;;7.80;98.00;;;;;;5005262;28;20036;-77
2021/12/04 12:36:09;;;;;;;1.00;0.80;;;7.80;98.00;;;;;;5017454;28;20358;-76
2021/12/04 12:38:43;;;;;;;1.00;0.80;;;7.70;98.00;;;;;;5016110;28;20034;-76
2021/12/04 12:41:16;;;;;;;1.27;0.80;;;7.70;98.00;;;;;;5032736;28;20030;-76
2021/12/04 12:43:44;;;;;;;1.17;0.80;;;7.70;98.00;;;;;;5016814;28;20018;-76
2021/12/04 12:46:11;;;;;;;1.17;0.80;;;7.60;98.00;;;;;;5017363;28;20037;-77
2021/12/04 12:48:51;;;;;;;1.88;0.80;;;7.60;98.00;;;;;;5009646;28;20543;-78
2021/12/04 12:51:24;;;;;;;0.82;0.70;;;7.70;98.00;;;;;;5017369;28;20057;-77
2021/12/04 12:53:50;;;;;;;1.63;1.30;;;7.80;98.00;;;;;;5016234;28;20079;-78
2021/12/04 12:56:16;;;;;;;0.75;0.70;;;7.80;98.00;;;;;;5016670;28;20030;-77
2021/12/04 12:58:47;;;;;;;0.95;0.70;;;7.90;98.00;;;;;;5016100;28;20100;-77
2021/12/04 13:13:41;;;;;;;1.15;0.70;;;8.40;98.00;;;;;;5001893;28;20033;-76
2021/12/04 13:16:20;;;;;;;1.52;0.70;;;8.50;98.00;;;;;;5008841;28;20030;-77
2021/12/04 13:18:55;;;;;;;0.60;0.60;;;8.60;98.00;;;;;;5014400;28;20330;-76
2021/12/04 13:21:22;;;;;;;0.73;0.70;;;8.70;98.00;;;;;;5017241;28;20395;-77
2021/12/04 13:23:54;;;;;;;1.08;0.60;;;8.80;98.00;;;;;;5014851;28;20164;-76
2021/12/04 13:26:30;;;;;;;0.75;0.60;;;8.70;98.00;;;;;;5016373;28;20057;-77
2021/12/04 13:29:00;;;;;;;0.80;0.60;;;8.80;98.00;;;;;;5015538;28;20028;-76
2021/12/04 13:31:26;;;;;;;1.10;0.70;;;8.80;98.00;;;;;;5016479;28;20034;-77
2021/12/04 13:33:54;;;;;;;0.85;0.60;;;8.60;98.00;;;;;;5015478;28;20034;-77
2021/12/04 13:36:24;;;;;;;2.25;0.60;;;8.50;98.00;;;;;;5015384;28;20065;-76
2021/12/04 13:39:11;;;;;;;0.85;0.60;;;8.50;98.00;;;;;;5008179;28;20041;-77
2021/12/04 13:41:39;;;;;;;0.60;0.60;;;8.40;98.00;;;;;;4996859;28;20065;-77
2021/12/04 13:44:07;;;;;;;2.60;1.42;;;8.40;98.00;;;;;;5009495;28;20018;-76
2021/12/04 13:46:40;;;;;;;1.40;0.75;;;8.50;98.00;;;;;;5016397;28;20030;-76
2021/12/04 13:49:06;;;;;;;1.17;0.70;;;8.60;98.00;;;;;;4998101;28;20407;-77
2021/12/04 13:51:32;;;;;;;1.00;0.70;;;8.60;98.00;;;;;;5015250;28;20030;-77
2021/12/04 13:53:58;;;;;;;2.30;1.10;;;8.70;98.00;;;;;;5014108;28;20084;-76
2021/12/04 13:56:24;;;;;;;1.27;0.80;;;8.70;98.00;;;;;;5016695;28;20036;-76
2021/12/04 13:58:57;;;;;;;2.78;1.40;;;8.50;98.00;;;;;;5016193;28;20034;-77
2021/12/04 14:01:24;;;;;;;2.92;1.30;;;8.20;98.00;;;;;;5014570;28;20029;-76
2021/12/04 14:03:55;;;;;;;1.45;0.82;;;8.00;98.00;;;;;;5015809;28;20049;-76
2021/12/04 14:06:21;;;;;;;4.10;1.42;;;7.90;98.00;;;;;;5016066;28;20022;-76
2021/12/04 14:09:05;;;;;;;2.05;0.98;;;7.80;98.00;;;;;;5013797;28;20026;-76
2021/12/04 14:11:37;;;;;;;2.60;1.20;;;7.70;98.00;;;;;;5015371;28;20113;-77
2021/12/04 14:14:13;;;;;;;2.35;1.10;;;7.60;98.00;;;;;;5015016;28;20034;-76
2021/12/04 14:16:40;;;;;;;1.75;1.00;;;7.50;98.00;;;;;;5015515;28;20054;-77
2021/12/04 14:19:14;;;;;;;1.40;0.80;;;7.50;98.00;;;;;;5015085;28;20318;-76
2021/12/04 14:21:40;;;;;;;2.45;1.10;;;7.50;98.00;;;;;;5015978;28;20026;-77
2021/12/04 14:24:06;;;;;;;3.40;1.10;;;7.40;98.00;;;;;;5014417;28;20033;-77
2021/12/04 14:26:32;;;;;;;2.00;0.90;;;7.30;98.00;;;;;;5015928;28;20073;-77
2021/12/04 14:28:58;;;;;;;3.40;1.50;;;7.30;98.00;;;;;;5015576;28;20335;-76
2021/12/04 14:31:23;;;;;;;1.05;0.80;;;7.50;98.00;;;;;;5015480;28;20109;-77
2021/12/04 14:33:49;;;;;;;1.02;0.70;;;7.70;98.00;;;;;;5015557;28;20038;-77
2021/12/04 14:36:22;;;;;;;1.45;0.77;;;7.90;98.00;;;;;;5014318;28;20534;-77
2021/12/04 14:38:48;;;;;;;0.80;0.70;;;8.20;98.00;;;;;;5014850;28;20021;-76
2021/12/04 14:41:15;;;;;;;1.15;0.75;;;8.30;98.00;;;;;;5015994;28;20022;-77
2021/12/04 14:43:42;;;;;;;0.90;0.70;;;8.40;98.00;;;;;;5014671;28;20037;-77
2021/12/04 14:46:13;;;;;;;0.80;0.60;;;8.60;98.00;;;;;;5015635;28;20018;-76
2021/12/04 14:48:48;;;;;;;0.70;0.60;;;8.60;98.00;;;;;;5015615;28;20022;-76
2021/12/04 14:51:20;;;;;;;0.60;0.60;;;8.60;98.00;;;;;;5015797;28;20051;-76
2021/12/04 14:53:50;;;;;;;2.25;1.00;;;8.70;98.00;;;;;;5014708;28;20423;-77
2021/12/04 14:56:19;;;;;;;1.15;0.73;;;8.70;98.00;;;;;;5014433;28;20026;-77
2021/12/04 14:58:45;;;;;;;1.80;1.00;;;8.80;98.00;;;;;;5015305;28;20032;-77
2021/12/04 15:01:13;;;;;;;0.85;0.70;;;8.90;98.00;;;;;;5012611;28;20420;-77
2021/12/04 15:03:53;;;;;;;0.88;0.75;;;8.90;98.00;;;;;;5005393;28;20030;-77
2021/12/04 15:06:23;;;;;;;2.70;1.10;;;8.90;98.00;;;;;;5011322;28;20433;-77
2021/12/04 15:09:01;;;;;;;1.98;1.00;;;8.90;98.00;;;;;;5012772;28;20026;-77
2021/12/04 15:11:32;;;;;;;1.42;0.70;;;8.90;98.00;;;;;;5015690;28;20033;-77
2021/12/04 15:14:06;;;;;;;0.98;0.70;;;8.90;98.00;;;;;;5015854;28;20101;-77
2021/12/04 15:16:39;;;;;;;0.75;0.70;;;8.80;98.00;;;;;;5014435;28;20026;-76
2021/12/04 15:19:19;;;;;;;0.90;0.70;;;8.80;98.00;;;;;;5014763;28;20084;-77
2021/12/04 15:21:51;;;;;;;2.25;1.20;;;8.70;97.70;;;;;;5014539;28;20032;-77
2021/12/04 15:24:23;;;;;;;1.08;0.70;;;8.60;98.00;;;;;;5014272;28;20022;-76
2021/12/04 15:26:54;;;;;;;1.40;0.80;;;8.60;97.10;;;;;;5010027;28;20046;-76
2021/12/04 15:29:24;;;;;;;2.15;1.10;;;8.60;96.30;;;;;;5018116;28;20037;-76
2021/12/04 15:31:52;;;;;;;2.50;1.00;;;8.50;96.70;;;;;;5018662;28;20057;-76
2021/12/04 15:34:42;;;;;;;2.45;1.13;;;8.40;97.10;;;;;;5018678;28;20036;-76
2021/12/04 15:37:09;;;;;;;1.42;0.80;;;8.30;98.00;;;;;;5005103;28;20030;-76
2021/12/04 15:39:44;;;;;;;1.83;1.00;;;8.20;98.00;;;;;;5018683;28;20036;-76
2021/12/04 15:45:28;;;;;;;1.15;0.80;;;8.00;98.00;;;;;;5018686;28;20427;-77
2021/12/04 15:48:37;;;;;;;1.75;1.00;;;7.80;98.00;;;;;;5018238;28;20068;-77
2021/12/04 15:53:54;;;;;;;1.35;0.80;;;7.50;98.00;;;;;;5017197;28;20026;-77
2021/12/04 15:56:35;;;;;;;0.98;0.80;;;7.50;98.00;;;;;;5017611;28;20458;-76
2021/12/04 15:59:01;;;;;;;0.85;0.70;;;7.50;98.00;;;;;;5016910;28;20361;-77
2021/12/04 16:01:29;;;;;;;1.35;0.90;;;7.50;98.00;;;;;;5018305;28;20029;-76
2021/12/04 16:03:56;;;;;;;1.48;0.80;;;7.50;98.00;;;;;;5018418;28;20018;-77
2021/12/04 16:06:22;;;;;;;1.95;1.08;;;7.50;98.00;;;;;;5013585;28;20319;-77
2021/12/04 16:08:48;;;;;;;1.33;0.70;;;7.50;98.00;;;;;;5015450;28;20036;-76
2021/12/04 16:11:16;;;;;;;2.03;0.80;;;7.40;98.00;;;;;;5018107;28;20060;-77
2021/12/04 16:13:48;;;;;;;1.10;0.80;;;7.40;98.00;;;;;;5018141;28;20053;-76
2021/12/04 16:16:19;;;;;;;4.90;2.13;;;7.40;98.00;;;;;;5018609;28;20025;-77
2021/12/04 16:18:46;;;;;;;3.35;1.40;;;7.40;98.00;;;;;;5017727;28;20192;-76
2021/12/04 16:21:14;;;;;;;1.42;0.80;;;7.40;98.00;;;;;;5018153;28;20030;-77
2021/12/04 16:23:41;;;;;;;1.13;0.80;;;7.30;98.00;;;;;;5015051;28;20049;-76
2021/12/04 16:26:12;;;;;;;1.67;1.00;;;7.30;98.00;;;;;;5015835;28;20505;-76
2021/12/04 16:36:39;;;;;;;2.88;1.60;;;7.40;98.00;;;;;;5017736;28;20030;-77